Terminal Aerodrome Forecast
Issued by NWS

Home | Current Version | Previous Version | Graphics & Text | Print | Product List | Glossary On
Versions: 1 2 3 4 5 6 7 8 9 10 11 12 13 14 15 16 17 18 19 20 21 22 23 24 25 26 27
000
FTUS42 KMHX 050419 AAA
TAFOAJ
TAF AMD
KOAJ 050419Z 0504/0524 02005KT 5SM BR BKN250
      TEMPO 0505/0508 2SM BR SCT015
     FM050800 VRB03KT P6SM BKN015
     FM051400 04005KT P6SM SCT020 BKN035
     FM051800 04010KT P6SM VCTS SCT050CB
      AMD LTD TO CLD VIS AND WIND=

USA.gov is the U.S. government's official web portal to all federal, state and local government web resources and services.